sensor_id;sensor_type;location;lat;lon;timestamp;pressure;altitude;pressure_sealevel;temperature;humidity
23170;BME280;11753;43.144;24.714;2023-02-12T00:00:20;100691.94;;;-1.50;70.36
23170;BME280;11753;43.144;24.714;2023-02-12T00:01:23;100693.13;;;-1.60;70.23
23170;BME280;11753;43.144;24.714;2023-02-12T00:02:24;100696.50;;;-1.58;70.19
23170;BME280;11753;43.144;24.714;2023-02-12T00:03:25;100693.66;;;-1.50;70.18
23170;BME280;11753;43.144;24.714;2023-02-12T00:04:26;100685.31;;;-1.58;70.21
23170;BME280;11753;43.144;24.714;2023-02-12T00:05:27;100695.66;;;-1.58;70.41
23170;BME280;11753;43.144;24.714;2023-02-12T00:06:28;100688.59;;;-1.53;70.51
23170;BME280;11753;43.144;24.714;2023-02-12T00:07:29;100685.22;;;-1.55;70.58
23170;BME280;11753;43.144;24.714;2023-02-12T00:08:33;100684.22;;;-1.51;70.57
23170;BME280;11753;43.144;24.714;2023-02-12T00:09:35;100683.44;;;-1.53;70.47
23170;BME280;11753;43.144;24.714;2023-02-12T00:10:41;100688.41;;;-1.47;70.38
23170;BME280;11753;43.144;24.714;2023-02-12T00:11:42;100683.22;;;-1.47;70.02
23170;BME280;11753;43.144;24.714;2023-02-12T00:12:43;100685.22;;;-1.55;70.14
23170;BME280;11753;43.144;24.714;2023-02-12T00:13:45;100693.03;;;-1.57;70.23
23170;BME280;11753;43.144;24.714;2023-02-12T00:14:46;100684.34;;;-1.54;70.08
23170;BME280;11753;43.144;24.714;2023-02-12T00:15:47;100692.28;;;-1.60;70.28
23170;BME280;11753;43.144;24.714;2023-02-12T00:16:48;100681.25;;;-1.66;70.53
23170;BME280;11753;43.144;24.714;2023-02-12T00:17:49;100697.56;;;-1.63;70.54
23170;BME280;11753;43.144;24.714;2023-02-12T00:18:54;100692.41;;;-1.63;70.60
23170;BME280;11753;43.144;24.714;2023-02-12T00:19:55;100690.69;;;-1.64;70.81
23170;BME280;11753;43.144;24.714;2023-02-12T00:20:58;100695.94;;;-1.68;70.68
23170;BME280;11753;43.144;24.714;2023-02-12T00:22:00;100682.91;;;-1.63;70.65
23170;BME280;11753;43.144;24.714;2023-02-12T00:23:01;100689.00;;;-1.66;70.67
23170;BME280;11753;43.144;24.714;2023-02-12T00:24:02;100690.69;;;-1.64;70.61
23170;BME280;11753;43.144;24.714;2023-02-12T00:25:04;100686.59;;;-1.72;70.51
23170;BME280;11753;43.144;24.714;2023-02-12T00:26:10;100683.28;;;-1.75;70.56
23170;BME280;11753;43.144;24.714;2023-02-12T00:27:11;100685.75;;;-1.71;70.48
23170;BME280;11753;43.144;24.714;2023-02-12T00:28:12;100683.53;;;-1.83;70.60
23170;BME280;11753;43.144;24.714;2023-02-12T00:29:13;100680.78;;;-1.77;70.66
23170;BME280;11753;43.144;24.714;2023-02-12T00:30:15;100691.19;;;-1.80;70.75
23170;BME280;11753;43.144;24.714;2023-02-12T00:31:21;100684.25;;;-1.78;70.94
23170;BME280;11753;43.144;24.714;2023-02-12T00:32:23;100686.00;;;-1.80;71.01
23170;BME280;11753;43.144;24.714;2023-02-12T00:33:24;100679.34;;;-1.87;71.52
23170;BME280;11753;43.144;24.714;2023-02-12T00:34:24;100685.34;;;-1.85;71.72
23170;BME280;11753;43.144;24.714;2023-02-12T00:35:25;100682.75;;;-1.85;71.47
23170;BME280;11753;43.144;24.714;2023-02-12T00:36:30;100678.31;;;-1.81;71.48
23170;BME280;11753;43.144;24.714;2023-02-12T00:37:31;100670.72;;;-1.86;71.51
23170;BME280;11753;43.144;24.714;2023-02-12T00:38:33;100677.59;;;-1.85;71.59
23170;BME280;11753;43.144;24.714;2023-02-12T00:39:34;100681.91;;;-1.85;71.64
23170;BME280;11753;43.144;24.714;2023-02-12T00:40:37;100672.44;;;-1.85;71.66
23170;BME280;11753;43.144;24.714;2023-02-12T00:41:38;100675.03;;;-1.86;71.64
23170;BME280;11753;43.144;24.714;2023-02-12T00:42:39;100667.28;;;-1.85;71.50
23170;BME280;11753;43.144;24.714;2023-02-12T00:43:40;100663.69;;;-1.81;71.49
23170;BME280;11753;43.144;24.714;2023-02-12T00:44:41;100658.47;;;-1.79;71.27
23170;BME280;11753;43.144;24.714;2023-02-12T00:45:44;100651.34;;;-1.73;71.06
23170;BME280;11753;43.144;24.714;2023-02-12T00:46:45;100649.78;;;-1.77;71.13
23170;BME280;11753;43.144;24.714;2023-02-12T00:47:46;100647.16;;;-1.75;70.96
23170;BME280;11753;43.144;24.714;2023-02-12T00:48:47;100652.25;;;-1.74;70.96
23170;BME280;11753;43.144;24.714;2023-02-12T00:49:47;100648.09;;;-1.78;70.66
23170;BME280;11753;43.144;24.714;2023-02-12T00:50:49;100653.84;;;-1.70;70.64
23170;BME280;11753;43.144;24.714;2023-02-12T00:51:50;100658.19;;;-1.72;70.59
23170;BME280;11753;43.144;24.714;2023-02-12T00:52:53;100653.91;;;-1.71;70.39
23170;BME280;11753;43.144;24.714;2023-02-12T00:53:55;100663.59;;;-1.78;70.25
23170;BME280;11753;43.144;24.714;2023-02-12T00:54:56;100666.19;;;-1.79;70.48
23170;BME280;11753;43.144;24.714;2023-02-12T00:55:57;100668.53;;;-1.98;71.23
23170;BME280;11753;43.144;24.714;2023-02-12T00:56:58;100658.47;;;-2.06;71.70
23170;BME280;11753;43.144;24.714;2023-02-12T00:57:59;100657.63;;;-2.06;72.15
23170;BME280;11753;43.144;24.714;2023-02-12T00:59:02;100660.94;;;-2.03;71.91
23170;BME280;11753;43.144;24.714;2023-02-12T01:00:04;100661.06;;;-2.06;72.01
23170;BME280;11753;43.144;24.714;2023-02-12T01:01:05;100659.69;;;-2.17;72.73
23170;BME280;11753;43.144;24.714;2023-02-12T01:02:06;100658.78;;;-2.16;72.91
23170;BME280;11753;43.144;24.714;2023-02-12T01:03:07;100655.06;;;-2.08;72.98
23170;BME280;11753;43.144;24.714;2023-02-12T01:04:08;100660.16;;;-2.05;72.83
23170;BME280;11753;43.144;24.714;2023-02-12T01:05:09;100649.78;;;-2.03;72.65
23170;BME280;11753;43.144;24.714;2023-02-12T01:06:10;100657.72;;;-2.09;72.60
23170;BME280;11753;43.144;24.714;2023-02-12T01:07:11;100658.41;;;-2.04;72.71
23170;BME280;11753;43.144;24.714;2023-02-12T01:08:14;100654.16;;;-2.05;72.83
23170;BME280;11753;43.144;24.714;2023-02-12T01:09:15;100657.41;;;-2.00;72.90
23170;BME280;11753;43.144;24.714;2023-02-12T01:10:18;100653.91;;;-1.98;72.43
23170;BME280;11753;43.144;24.714;2023-02-12T01:11:20;100646.88;;;-1.94;72.10
23170;BME280;11753;43.144;24.714;2023-02-12T01:12:21;100653.16;;;-2.01;72.43
23170;BME280;11753;43.144;24.714;2023-02-12T01:13:21;100652.16;;;-1.97;72.63
23170;BME280;11753;43.144;24.714;2023-02-12T01:14:24;100651.13;;;-1.91;72.10
23170;BME280;11753;43.144;24.714;2023-02-12T01:15:25;100659.00;;;-1.96;72.20
23170;BME280;11753;43.144;24.714;2023-02-12T01:16:26;100657.88;;;-1.87;72.29
23170;BME280;11753;43.144;24.714;2023-02-12T01:17:27;100651.88;;;-1.88;71.90
23170;BME280;11753;43.144;24.714;2023-02-12T01:18:28;100649.97;;;-1.83;71.63
23170;BME280;11753;43.144;24.714;2023-02-12T01:19:29;100657.13;;;-1.91;71.78
23170;BME280;11753;43.144;24.714;2023-02-12T01:20:30;100653.72;;;-1.93;72.05
23170;BME280;11753;43.144;24.714;2023-02-12T01:21:32;100654.59;;;-1.92;72.28
23170;BME280;11753;43.144;24.714;2023-02-12T01:22:34;100651.88;;;-1.88;72.21
23170;BME280;11753;43.144;24.714;2023-02-12T01:23:35;100645.78;;;-1.85;72.18
23170;BME280;11753;43.144;24.714;2023-02-12T01:24:36;100642.31;;;-1.86;72.22
23170;BME280;11753;43.144;24.714;2023-02-12T01:25:37;100636.13;;;-1.80;72.20
23170;BME280;11753;43.144;24.714;2023-02-12T01:26:38;100635.41;;;-1.84;72.27
23170;BME280;11753;43.144;24.714;2023-02-12T01:27:39;100642.09;;;-1.78;72.19
23170;BME280;11753;43.144;24.714;2023-02-12T01:28:42;100643.13;;;-1.84;72.01
23170;BME280;11753;43.144;24.714;2023-02-12T01:29:44;100641.34;;;-1.82;72.04
23170;BME280;11753;43.144;24.714;2023-02-12T01:30:45;100640.38;;;-1.79;71.95
23170;BME280;11753;43.144;24.714;2023-02-12T01:31:46;100637.84;;;-1.81;71.83
23170;BME280;11753;43.144;24.714;2023-02-12T01:32:46;100641.16;;;-1.76;71.41
23170;BME280;11753;43.144;24.714;2023-02-12T01:33:48;100648.00;;;-1.75;71.42
23170;BME280;11753;43.144;24.714;2023-02-12T01:34:50;100644.44;;;-1.72;71.19
23170;BME280;11753;43.144;24.714;2023-02-12T01:35:51;100646.31;;;-1.76;71.29
23170;BME280;11753;43.144;24.714;2023-02-12T01:36:52;100646.50;;;-1.82;71.69
23170;BME280;11753;43.144;24.714;2023-02-12T01:37:52;100636.94;;;-1.78;71.50
23170;BME280;11753;43.144;24.714;2023-02-12T01:38:54;100637.84;;;-1.81;71.64
23170;BME280;11753;43.144;24.714;2023-02-12T01:39:55;100630.97;;;-1.80;71.22
23170;BME280;11753;43.144;24.714;2023-02-12T01:41:04;100627.44;;;-1.78;71.30
23170;BME280;11753;43.144;24.714;2023-02-12T01:42:05;100630.69;;;-1.71;71.17
23170;BME280;11753;43.144;24.714;2023-02-12T01:43:11;100621.19;;;-1.71;70.97
23170;BME280;11753;43.144;24.714;2023-02-12T01:44:16;100628.81;;;-1.68;70.58
23170;BME280;11753;43.144;24.714;2023-02-12T01:46:22;100624.41;;;-1.64;70.94
23170;BME280;11753;43.144;24.714;2023-02-12T01:47:23;100622.63;;;-1.62;70.76
23170;BME280;11753;43.144;24.714;2023-02-12T01:48:26;100623.97;;;-1.52;70.64
23170;BME280;11753;43.144;24.714;2023-02-12T01:49:39;100631.44;;;-1.44;70.36
23170;BME280;11753;43.144;24.714;2023-02-12T01:50:42;100633.31;;;-1.48;70.41
23170;BME280;11753;43.144;24.714;2023-02-12T01:51:45;100638.31;;;-1.43;70.14
23170;BME280;11753;43.144;24.714;2023-02-12T01:52:50;100634.72;;;-1.39;70.00
23170;BME280;11753;43.144;24.714;2023-02-12T01:53:54;100635.69;;;-1.42;69.77
23170;BME280;11753;43.144;24.714;2023-02-12T01:55:02;100641.59;;;-1.38;69.87
23170;BME280;11753;43.144;24.714;2023-02-12T01:56:05;100638.22;;;-1.40;69.68
23170;BME280;11753;43.144;24.714;2023-02-12T01:57:07;100633.06;;;-1.40;69.63
23170;BME280;11753;43.144;24.714;2023-02-12T01:58:12;100636.53;;;-1.41;69.43
23170;BME280;11753;43.144;24.714;2023-02-12T01:59:13;100630.19;;;-1.32;69.23
23170;BME280;11753;43.144;24.714;2023-02-12T02:00:22;100630.47;;;-1.40;69.53
23170;BME280;11753;43.144;24.714;2023-02-12T02:01:27;100641.69;;;-1.41;69.21
23170;BME280;11753;43.144;24.714;2023-02-12T02:02:30;100632.94;;;-1.37;68.93
23170;BME280;11753;43.144;24.714;2023-02-12T02:03:32;100629.34;;;-1.33;68.91
23170;BME280;11753;43.144;24.714;2023-02-12T02:04:41;100630.13;;;-1.31;68.89
23170;BME280;11753;43.144;24.714;2023-02-12T02:07:03;100629.25;;;-1.30;69.07
23170;BME280;11753;43.144;24.714;2023-02-12T02:08:04;100629.44;;;-1.36;69.38
23170;BME280;11753;43.144;24.714;2023-02-12T02:09:05;100637.00;;;-1.30;69.33
23170;BME280;11753;43.144;24.714;2023-02-12T02:10:06;100641.03;;;-1.23;69.26
23170;BME280;11753;43.144;24.714;2023-02-12T02:11:07;100639.16;;;-1.18;68.95
23170;BME280;11753;43.144;24.714;2023-02-12T02:12:27;100642.63;;;-1.19;68.48
23170;BME280;11753;43.144;24.714;2023-02-12T02:13:47;100637.63;;;-1.23;68.39
23170;BME280;11753;43.144;24.714;2023-02-12T02:15:07;100633.41;;;-1.26;68.27
23170;BME280;11753;43.144;24.714;2023-02-12T02:16:24;100633.28;;;-1.23;68.69
23170;BME280;11753;43.144;24.714;2023-02-12T02:19:02;100635.31;;;-1.31;68.99
23170;BME280;11753;43.144;24.714;2023-02-12T02:30:42;100636.56;;;-1.18;68.84
23170;BME280;11753;43.144;24.714;2023-02-12T02:35:10;100645.38;;;-1.23;68.77
23170;BME280;11753;43.144;24.714;2023-02-12T02:37:46;100644.88;;;-1.09;68.27
23170;BME280;11753;43.144;24.714;2023-02-12T02:39:12;100637.34;;;-1.16;68.33
23170;BME280;11753;43.144;24.714;2023-02-12T02:40:29;100637.31;;;-1.14;68.65
23170;BME280;11753;43.144;24.714;2023-02-12T02:41:37;100631.13;;;-1.10;68.70
23170;BME280;11753;43.144;24.714;2023-02-12T02:42:47;100642.78;;;-0.98;68.42
23170;BME280;11753;43.144;24.714;2023-02-12T02:43:51;100633.44;;;-1.02;67.83
23170;BME280;11753;43.144;24.714;2023-02-12T02:44:57;100636.56;;;-0.94;68.03
23170;BME280;11753;43.144;24.714;2023-02-12T02:46:06;100644.25;;;-0.91;67.96
23170;BME280;11753;43.144;24.714;2023-02-12T02:47:13;100640.63;;;-0.87;68.18
23170;BME280;11753;43.144;24.714;2023-02-12T02:48:21;100645.16;;;-0.92;68.25
23170;BME280;11753;43.144;24.714;2023-02-12T02:49:30;100643.00;;;-0.81;67.94
23170;BME280;11753;43.144;24.714;2023-02-12T02:50:34;100631.19;;;-0.88;68.11
23170;BME280;11753;43.144;24.714;2023-02-12T02:51:41;100634.69;;;-0.89;68.02
23170;BME280;11753;43.144;24.714;2023-02-12T02:52:49;100639.50;;;-0.80;67.72
23170;BME280;11753;43.144;24.714;2023-02-12T02:53:57;100634.31;;;-0.80;67.97
23170;BME280;11753;43.144;24.714;2023-02-12T02:55:12;100632.78;;;-0.84;67.87
23170;BME280;11753;43.144;24.714;2023-02-12T02:56:17;100629.00;;;-0.75;67.69
23170;BME280;11753;43.144;24.714;2023-02-12T02:57:29;100634.22;;;-0.77;67.72
23170;BME280;11753;43.144;24.714;2023-02-12T02:58:35;100630.63;;;-0.73;67.72
23170;BME280;11753;43.144;24.714;2023-02-12T02:59:44;100631.44;;;-0.71;67.58
23170;BME280;11753;43.144;24.714;2023-02-12T03:00:54;100627.03;;;-0.69;67.44
23170;BME280;11753;43.144;24.714;2023-02-12T03:02:11;100627.75;;;-0.65;67.32
23170;BME280;11753;43.144;24.714;2023-02-12T03:03:44;100627.03;;;-0.69;67.47
23170;BME280;11753;43.144;24.714;2023-02-12T03:04:54;100622.56;;;-0.65;67.24
23170;BME280;11753;43.144;24.714;2023-02-12T03:06:03;100618.19;;;-0.63;67.32
23170;BME280;11753;43.144;24.714;2023-02-12T03:07:09;100628.31;;;-0.57;67.34
23170;BME280;11753;43.144;24.714;2023-02-12T03:08:16;100623.19;;;-0.59;67.23
23170;BME280;11753;43.144;24.714;2023-02-12T03:09:27;100623.41;;;-0.65;67.04
23170;BME280;11753;43.144;24.714;2023-02-12T03:10:33;100625.22;;;-0.67;67.12
23170;BME280;11753;43.144;24.714;2023-02-12T03:11:36;100622.63;;;-0.67;67.41
23170;BME280;11753;43.144;24.714;2023-02-12T03:13:17;100620.66;;;-0.60;67.35
23170;BME280;11753;43.144;24.714;2023-02-12T03:14:26;100617.91;;;-0.56;67.00
23170;BME280;11753;43.144;24.714;2023-02-12T03:15:34;100626.66;;;-0.60;66.99
23170;BME280;11753;43.144;24.714;2023-02-12T03:16:53;100620.59;;;-0.59;66.77
23170;BME280;11753;43.144;24.714;2023-02-12T03:17:58;100619.22;;;-0.67;66.87
23170;BME280;11753;43.144;24.714;2023-02-12T03:19:07;100621.72;;;-0.66;67.00
23170;BME280;11753;43.144;24.714;2023-02-12T03:20:18;100619.94;;;-0.64;66.73
23170;BME280;11753;43.144;24.714;2023-02-12T03:21:36;100622.56;;;-0.65;67.07
23170;BME280;11753;43.144;24.714;2023-02-12T03:22:43;100618.22;;;-0.65;66.63
23170;BME280;11753;43.144;24.714;2023-02-12T03:24:12;100616.56;;;-0.66;66.71
23170;BME280;11753;43.144;24.714;2023-02-12T03:27:05;100620.59;;;-0.59;67.09
23170;BME280;11753;43.144;24.714;2023-02-12T03:28:18;100622.28;;;-0.58;66.74
23170;BME280;11753;43.144;24.714;2023-02-12T03:29:23;100628.25;;;-0.56;66.42
23170;BME280;11753;43.144;24.714;2023-02-12T03:30:41;100628.03;;;-0.49;66.46
23170;BME280;11753;43.144;24.714;2023-02-12T03:32:09;100625.78;;;-0.59;66.64
23170;BME280;11753;43.144;24.714;2023-02-12T03:33:33;100626.66;;;-0.60;66.90
23170;BME280;11753;43.144;24.714;2023-02-12T03:37:58;100625.00;;;-0.39;65.97
23170;BME280;11753;43.144;24.714;2023-02-12T03:39:28;100629.19;;;-0.35;65.83
23170;BME280;11753;43.144;24.714;2023-02-12T03:40:53;100629.81;;;-0.30;65.68
23170;BME280;11753;43.144;24.714;2023-02-12T03:42:13;100631.16;;;-0.19;65.02
23170;BME280;11753;43.144;24.714;2023-02-12T03:43:29;100639.03;;;-0.22;65.01
23170;BME280;11753;43.144;24.714;2023-02-12T03:44:56;100627.06;;;-0.25;65.17
23170;BME280;11753;43.144;24.714;2023-02-12T03:46:13;100626.00;;;-0.19;65.29
23170;BME280;11753;43.144;24.714;2023-02-12T03:49:36;100631.34;;;-0.24;65.35
23170;BME280;11753;43.144;24.714;2023-02-12T03:50:57;100634.34;;;-0.13;65.31
23170;BME280;11753;43.144;24.714;2023-02-12T03:52:00;100634.16;;;-0.08;65.09
23170;BME280;11753;43.144;24.714;2023-02-12T03:53:01;100637.88;;;-0.15;65.07
23170;BME280;11753;43.144;24.714;2023-02-12T03:54:04;100631.56;;;-0.08;65.09
23170;BME280;11753;43.144;24.714;2023-02-12T03:55:05;100625.22;;;-0.01;65.07
23170;BME280;11753;43.144;24.714;2023-02-12T03:56:11;100632.00;;;0.03;64.83
23170;BME280;11753;43.144;24.714;2023-02-12T03:57:17;100634.34;;;0.09;64.71
23170;BME280;11753;43.144;24.714;2023-02-12T03:58:22;100630.00;;;0.10;64.74
23170;BME280;11753;43.144;24.714;2023-02-12T03:59:27;100620.41;;;0.12;64.71
23170;BME280;11753;43.144;24.714;2023-02-12T04:00:29;100627.34;;;0.11;64.49
23170;BME280;11753;43.144;24.714;2023-02-12T04:01:32;100624.56;;;0.16;64.59
23170;BME280;11753;43.144;24.714;2023-02-12T04:02:33;100636.53;;;0.18;64.44
23170;BME280;11753;43.144;24.714;2023-02-12T04:03:35;100631.81;;;0.28;64.47
23170;BME280;11753;43.144;24.714;2023-02-12T04:04:37;100632.63;;;0.30;64.39
23170;BME280;11753;43.144;24.714;2023-02-12T04:05:38;100640.06;;;0.38;64.19
23170;BME280;11753;43.144;24.714;2023-02-12T04:06:39;100626.97;;;0.41;64.21
23170;BME280;11753;43.144;24.714;2023-02-12T04:07:40;100619.00;;;0.45;64.15
23170;BME280;11753;43.144;24.714;2023-02-12T04:08:41;100624.78;;;0.52;63.76
23170;BME280;11753;43.144;24.714;2023-02-12T04:09:44;100617.59;;;0.59;63.24
23170;BME280;11753;43.144;24.714;2023-02-12T04:11:19;100612.91;;;0.67;62.82
23170;BME280;11753;43.144;24.714;2023-02-12T04:12:37;100617.63;;;0.77;61.77
23170;BME280;11753;43.144;24.714;2023-02-12T04:16:28;100619.56;;;1.12;60.74
23170;BME280;11753;43.144;24.714;2023-02-12T04:19:00;100618.66;;;1.13;60.69
23170;BME280;11753;43.144;24.714;2023-02-12T04:20:20;100618.25;;;1.22;60.68
23170;BME280;11753;43.144;24.714;2023-02-12T04:28:12;100620.84;;;1.59;59.17
23170;BME280;11753;43.144;24.714;2023-02-12T04:29:40;100617.47;;;1.57;58.79
23170;BME280;11753;43.144;24.714;2023-02-12T04:30:48;100617.94;;;1.65;58.46
23170;BME280;11753;43.144;24.714;2023-02-12T04:32:05;100609.88;;;1.72;58.43
23170;BME280;11753;43.144;24.714;2023-02-12T04:33:15;100614.00;;;1.76;57.73
23170;BME280;11753;43.144;24.714;2023-02-12T04:40:12;100620.69;;;2.33;55.09
23170;BME280;11753;43.144;24.714;2023-02-12T04:41:14;100620.94;;;2.46;54.23
23170;BME280;11753;43.144;24.714;2023-02-12T04:42:15;100616.34;;;2.51;54.45
23170;BME280;11753;43.144;24.714;2023-02-12T04:43:27;100622.66;;;2.63;53.89
23170;BME280;11753;43.144;24.714;2023-02-12T04:44:31;100619.09;;;2.65;53.24
23170;BME280;11753;43.144;24.714;2023-02-12T04:45:34;100621.44;;;2.70;53.82
23170;BME280;11753;43.144;24.714;2023-02-12T04:46:35;100618.28;;;2.81;53.13
23170;BME280;11753;43.144;24.714;2023-02-12T04:47:36;100620.88;;;2.81;53.41
23170;BME280;11753;43.144;24.714;2023-02-12T04:48:54;100624.16;;;2.84;53.73
23170;BME280;11753;43.144;24.714;2023-02-12T04:49:56;100629.03;;;2.90;52.89
23170;BME280;11753;43.144;24.714;2023-02-12T04:50:57;100622.69;;;2.96;53.01
23170;BME280;11753;43.144;24.714;2023-02-12T04:51:58;100632.88;;;3.00;52.64
23170;BME280;11753;43.144;24.714;2023-02-12T04:52:59;100638.41;;;3.10;52.84
23170;BME280;11753;43.144;24.714;2023-02-12T04:54:00;100632.47;;;3.08;52.83
23170;BME280;11753;43.144;24.714;2023-02-12T04:55:01;100626.25;;;3.11;53.06
23170;BME280;11753;43.144;24.714;2023-02-12T04:56:02;100625.41;;;3.10;52.73
23170;BME280;11753;43.144;24.714;2023-02-12T04:57:03;100636.88;;;3.06;53.14
23170;BME280;11753;43.144;24.714;2023-02-12T04:58:05;100632.09;;;3.14;52.97
23170;BME280;11753;43.144;24.714;2023-02-12T04:59:06;100629.50;;;3.14;52.38
23170;BME280;11753;43.144;24.714;2023-02-12T05:00:11;100630.13;;;3.19;52.21
23170;BME280;11753;43.144;24.714;2023-02-12T05:01:13;100650.19;;;3.17;52.66
23170;BME280;11753;43.144;24.714;2023-02-12T05:02:15;100645.50;;;3.24;52.81
23170;BME280;11753;43.144;24.714;2023-02-12T05:03:16;100645.81;;;3.18;53.09
23170;BME280;11753;43.144;24.714;2023-02-12T05:04:17;100648.09;;;3.24;53.24
23170;BME280;11753;43.144;24.714;2023-02-12T05:05:19;100644.38;;;3.28;52.96
23170;BME280;11753;43.144;24.714;2023-02-12T05:06:20;100656.31;;;3.32;52.70
23170;BME280;11753;43.144;24.714;2023-02-12T05:07:21;100659.84;;;3.31;52.44
23170;BME280;11753;43.144;24.714;2023-02-12T05:08:22;100660.81;;;3.46;51.57
23170;BME280;11753;43.144;24.714;2023-02-12T05:09:23;100651.31;;;3.45;51.78
23170;BME280;11753;43.144;24.714;2023-02-12T05:10:24;100658.53;;;3.40;52.07
23170;BME280;11753;43.144;24.714;2023-02-12T05:11:25;100651.47;;;3.42;52.26
23170;BME280;11753;43.144;24.714;2023-02-12T05:12:26;100660.81;;;3.46;52.56
23170;BME280;11753;43.144;24.714;2023-02-12T05:13:27;100655.34;;;3.50;52.61
23170;BME280;11753;43.144;24.714;2023-02-12T05:14:28;100660.88;;;3.60;51.80
23170;BME280;11753;43.144;24.714;2023-02-12T05:15:29;100658.53;;;3.55;51.93
23170;BME280;11753;43.144;24.714;2023-02-12T05:16:30;100664.56;;;3.56;51.89
23170;BME280;11753;43.144;24.714;2023-02-12T05:17:31;100657.88;;;3.52;52.01
23170;BME280;11753;43.144;24.714;2023-02-12T05:18:33;100661.72;;;3.45;51.89
23170;BME280;11753;43.144;24.714;2023-02-12T05:19:35;100668.44;;;3.49;51.87
23170;BME280;11753;43.144;24.714;2023-02-12T05:20:36;100664.75;;;3.53;51.95
23170;BME280;11753;43.144;24.714;2023-02-12T05:21:37;100666.09;;;3.60;51.70
23170;BME280;11753;43.144;24.714;2023-02-12T05:22:38;100664.41;;;3.59;51.92
23170;BME280;11753;43.144;24.714;2023-02-12T05:23:40;100674.00;;;3.58;52.01
23170;BME280;11753;43.144;24.714;2023-02-12T05:24:41;100669.31;;;3.65;52.03
23170;BME280;11753;43.144;24.714;2023-02-12T05:25:42;100665.91;;;3.63;51.83
23170;BME280;11753;43.144;24.714;2023-02-12T05:26:42;100665.69;;;3.68;51.53
23170;BME280;11753;43.144;24.714;2023-02-12T05:27:43;100663.16;;;3.66;51.68
23170;BME280;11753;43.144;24.714;2023-02-12T05:28:44;100676.53;;;3.60;51.59
23170;BME280;11753;43.144;24.714;2023-02-12T05:29:45;100672.22;;;3.59;51.26
23170;BME280;11753;43.144;24.714;2023-02-12T05:30:46;100670.38;;;3.61;51.63
23170;BME280;11753;43.144;24.714;2023-02-12T05:31:46;100667.44;;;3.67;51.64
23170;BME280;11753;43.144;24.714;2023-02-12T05:32:47;100673.72;;;3.63;51.65
23170;BME280;11753;43.144;24.714;2023-02-12T05:33:48;100675.16;;;3.69;51.52
23170;BME280;11753;43.144;24.714;2023-02-12T05:34:50;100677.44;;;3.75;51.01
23170;BME280;11753;43.144;24.714;2023-02-12T05:35:51;100677.19;;;3.79;50.98
23170;BME280;11753;43.144;24.714;2023-02-12T05:36:52;100676.94;;;3.84;50.96
23170;BME280;11753;43.144;24.714;2023-02-12T05:37:52;100674.22;;;3.85;50.77
23170;BME280;11753;43.144;24.714;2023-02-12T05:38:56;100677.19;;;3.79;50.19
23170;BME280;11753;43.144;24.714;2023-02-12T05:39:57;100687.25;;;3.85;50.43
23170;BME280;11753;43.144;24.714;2023-02-12T05:41:07;100682.53;;;3.92;50.76
23170;BME280;11753;43.144;24.714;2023-02-12T05:42:07;100686.59;;;3.98;50.52
23170;BME280;11753;43.144;24.714;2023-02-12T05:43:09;100687.78;;;4.08;50.66
23170;BME280;11753;43.144;24.714;2023-02-12T05:44:10;100686.25;;;4.04;50.34
23170;BME280;11753;43.144;24.714;2023-02-12T05:45:14;100691.78;;;3.98;50.49
23170;BME280;11753;43.144;24.714;2023-02-12T05:46:16;100688.59;;;3.93;50.99
23170;BME280;11753;43.144;24.714;2023-02-12T05:47:17;100686.41;;;3.69;50.88
23170;BME280;11753;43.144;24.714;2023-02-12T05:48:17;100691.47;;;3.72;51.14
23170;BME280;11753;43.144;24.714;2023-02-12T05:49:18;100698.38;;;3.73;49.68
23170;BME280;11753;43.144;24.714;2023-02-12T05:50:19;100695.25;;;3.82;49.81
23170;BME280;11753;43.144;24.714;2023-02-12T05:51:23;100705.34;;;3.89;50.05
23170;BME280;11753;43.144;24.714;2023-02-12T05:52:24;100708.59;;;3.92;50.23
23170;BME280;11753;43.144;24.714;2023-02-12T05:53:25;100707.53;;;3.96;50.22
23170;BME280;11753;43.144;24.714;2023-02-12T05:54:26;100724.75;;;3.99;50.18
23170;BME280;11753;43.144;24.714;2023-02-12T05:55:27;100723.66;;;4.03;49.67
23170;BME280;11753;43.144;24.714;2023-02-12T05:56:30;100724.41;;;4.05;49.91
23170;BME280;11753;43.144;24.714;2023-02-12T05:57:31;100720.13;;;4.04;50.29
23170;BME280;11753;43.144;24.714;2023-02-12T05:58:32;100734.59;;;4.09;50.22
23170;BME280;11753;43.144;24.714;2023-02-12T05:59:32;100731.06;;;3.95;48.93
23170;BME280;11753;43.144;24.714;2023-02-12T06:00:33;100735.53;;;4.08;48.41
23170;BME280;11753;43.144;24.714;2023-02-12T06:01:39;100731.47;;;4.03;48.20
23170;BME280;11753;43.144;24.714;2023-02-12T06:02:40;100738.56;;;4.01;48.42
23170;BME280;11753;43.144;24.714;2023-02-12T06:03:41;100738.59;;;3.83;48.81
23170;BME280;11753;43.144;24.714;2023-02-12T06:04:42;100739.88;;;3.92;49.16
23170;BME280;11753;43.144;24.714;2023-02-12T06:05:49;100734.16;;;3.85;49.71
23170;BME280;11753;43.144;24.714;2023-02-12T06:06:52;100740.72;;;3.93;49.42
23170;BME280;11753;43.144;24.714;2023-02-12T06:07:52;100743.91;;;3.98;49.71
23170;BME280;11753;43.144;24.714;2023-02-12T06:08:53;100738.03;;;3.94;49.41
23170;BME280;11753;43.144;24.714;2023-02-12T06:09:54;100735.00;;;4.02;49.10
23170;BME280;11753;43.144;24.714;2023-02-12T06:10:59;100736.84;;;3.84;49.58
23170;BME280;11753;43.144;24.714;2023-02-12T06:12:00;100743.06;;;3.66;49.59
23170;BME280;11753;43.144;24.714;2023-02-12T06:13:01;100736.06;;;3.50;49.93
23170;BME280;11753;43.144;24.714;2023-02-12T06:14:03;100741.00;;;3.55;50.05
23170;BME280;11753;43.144;24.714;2023-02-12T06:15:05;100738.81;;;3.47;50.32
23170;BME280;11753;43.144;24.714;2023-02-12T06:16:06;100739.34;;;3.54;50.30
23170;BME280;11753;43.144;24.714;2023-02-12T06:17:10;100739.25;;;3.71;49.51
23170;BME280;11753;43.144;24.714;2023-02-12T06:18:11;100735.84;;;3.86;49.42